createdAt,value
2019-06-20T00:04:07.961Z,6.73
2019-06-20T00:09:13.019Z,3.40
2019-06-20T00:14:18.387Z,3.43
2019-06-20T00:19:23.448Z,3.90
2019-06-20T00:24:28.504Z,3.97
2019-06-20T00:29:33.320Z,4.57
2019-06-20T00:34:38.379Z,2.97
2019-06-20T00:39:43.275Z,3.50
2019-06-20T00:44:48.348Z,3.03
2019-06-20T00:49:53.553Z,3.63
2019-06-20T00:54:59.012Z,4.57
2019-06-20T01:00:08.784Z,3.80
2019-06-20T01:05:14.575Z,6.67
2019-06-20T01:10:19.703Z,5.63
2019-06-20T01:15:24.575Z,6.20
2019-06-20T01:20:29.631Z,4.23
2019-06-20T01:25:39.155Z,3.37
2019-06-20T01:30:43.968Z,4.03
2019-06-20T01:35:48.778Z,3.70
2019-06-20T01:40:53.662Z,3.27
2019-06-20T01:45:58.476Z,6.50
2019-06-20T01:51:03.307Z,3.63
2019-06-20T01:56:08.145Z,6.40
2019-06-20T02:01:12.967Z,4.47
2019-06-20T02:06:17.794Z,4.30
2019-06-20T02:11:22.611Z,3.80
2019-06-20T02:16:27.704Z,4.00
2019-06-20T02:21:32.829Z,4.93
2019-06-20T02:26:37.882Z,5.90
2019-06-20T02:31:42.946Z,5.73
2019-06-20T02:36:47.999Z,7.53
2019-06-20T02:41:52.809Z,6.97
2019-06-20T02:46:57.634Z,8.30
2019-06-20T02:52:03.282Z,9.43
2019-06-20T02:57:08.220Z,10.97
2019-06-20T03:02:13.034Z,9.97
2019-06-20T03:07:18.091Z,11.40
2019-06-20T03:12:22.910Z,11.40
2019-06-20T03:17:27.965Z,12.47
2019-06-20T03:22:32.785Z,15.87
2019-06-20T03:27:37.864Z,13.67
2019-06-20T03:32:42.687Z,16.10
2019-06-20T03:37:50.200Z,15.50
2019-06-20T03:42:54.036Z,14.57
2019-06-20T03:47:58.927Z,14.27
2019-06-20T03:53:03.988Z,18.30
2019-06-20T03:58:08.821Z,20.40
2019-06-20T04:03:13.904Z,18.43
2019-06-20T04:08:18.935Z,19.13
2019-06-20T04:13:23.763Z,21.07
2019-06-20T04:18:28.850Z,18.17
2019-06-20T04:23:34.002Z,22.63
2019-06-20T04:28:38.847Z,22.53
2019-06-20T04:33:43.918Z,22.37
2019-06-20T04:38:48.998Z,23.43
2019-06-20T04:43:54.772Z,22.50
2019-06-20T04:48:59.688Z,22.20
2019-06-20T04:54:05.747Z,21.70
2019-06-20T04:59:10.824Z,24.37
2019-06-20T05:04:16.636Z,21.10
2019-06-20T05:09:21.854Z,21.17
2019-06-20T05:14:26.696Z,23.87
2019-06-20T05:19:31.775Z,22.73
2019-06-20T05:24:36.602Z,23.43
2019-06-20T05:29:41.673Z,21.10
2019-06-20T05:34:46.500Z,25.73
2019-06-20T05:39:51.343Z,23.63
2019-06-20T05:44:56.181Z,23.30
2019-06-20T05:50:01.001Z,26.97
2019-06-20T05:55:06.802Z,28.07
2019-06-20T06:00:12.064Z,31.90
2019-06-20T06:05:17.484Z,26.10
2019-06-20T06:10:23.253Z,29.13
2019-06-20T06:15:29.205Z,32.00
2019-06-20T06:20:34.037Z,32.53
2019-06-20T06:25:40.139Z,32.30
2019-06-20T06:30:45.206Z,34.33
2019-06-20T06:35:50.094Z,34.07
2019-06-20T06:40:55.157Z,34.07
2019-06-20T06:46:00.239Z,30.83
2019-06-20T06:51:05.354Z,31.30
2019-06-20T06:56:10.455Z,34.43
2019-06-20T07:01:15.576Z,34.10
2019-06-20T07:06:20.432Z,31.57
2019-06-20T07:11:25.501Z,25.37
2019-06-20T07:16:30.585Z,27.67
2019-06-20T07:21:35.673Z,28.30
2019-06-20T07:26:40.570Z,25.23
2019-06-20T07:31:45.645Z,24.67
2019-06-20T07:36:50.457Z,26.03
2019-06-20T07:41:55.285Z,27.57
2019-06-20T07:47:16.240Z,28.10
2019-06-20T07:52:07.852Z,23.10
2019-06-20T07:57:12.923Z,19.07
2019-06-20T08:02:17.807Z,22.33
2019-06-20T08:07:22.631Z,22.83
2019-06-20T08:12:27.466Z,20.73
2019-06-20T08:17:35.602Z,19.97
2019-06-20T08:22:39.049Z,23.47
2019-06-20T08:27:49.963Z,25.90
2019-06-20T08:32:57.433Z,19.20
2019-06-20T08:38:03.654Z,19.43
2019-06-20T08:43:09.270Z,15.73
2019-06-20T08:48:14.115Z,14.90
2019-06-20T08:53:18.938Z,16.00
2019-06-20T08:58:24.089Z,10.27
2019-06-20T09:03:28.982Z,11.83
2019-06-20T09:08:34.033Z,11.77
2019-06-20T09:13:40.640Z,10.17
2019-06-20T09:18:45.705Z,8.27
2019-06-20T09:23:52.393Z,7.90
2019-06-20T09:29:04.076Z,6.33
2019-06-20T09:34:09.046Z,5.87
2019-06-20T09:39:14.108Z,7.17
2019-06-20T09:44:19.173Z,6.17
2019-06-20T09:49:24.058Z,5.73
2019-06-20T09:54:29.190Z,5.53
2019-06-20T09:59:34.334Z,5.93
2019-06-20T10:04:39.387Z,7.07
2019-06-20T10:09:46.628Z,4.43
2019-06-20T10:14:51.568Z,5.73
2019-06-20T10:19:56.401Z,17.57
2019-06-20T10:25:01.245Z,7.23
2019-06-20T10:30:14.413Z,8.73
2019-06-20T10:35:14.417Z,6.50
2019-06-20T10:40:20.114Z,7.60
2019-06-20T10:45:26.023Z,7.47
2019-06-20T10:50:31.102Z,6.37
2019-06-20T10:55:36.224Z,6.47
2019-06-20T11:00:42.965Z,7.30
2019-06-20T11:05:48.217Z,5.80
2019-06-20T11:10:53.104Z,6.17
2019-06-20T11:15:57.993Z,6.13
2019-06-20T11:21:02.853Z,5.10
2019-06-20T11:26:07.998Z,4.40
2019-06-20T11:31:12.828Z,4.13
2019-06-20T11:36:17.887Z,5.13
2019-06-20T11:41:22.937Z,4.30
2019-06-20T11:46:28.058Z,4.03
2019-06-20T11:51:34.364Z,4.23
2019-06-20T11:56:39.600Z,3.33
2019-06-20T12:01:44.877Z,4.57
2019-06-20T12:06:49.719Z,4.67
2019-06-20T12:11:54.789Z,5.57
2019-06-20T12:16:59.702Z,5.27
2019-06-20T12:22:05.000Z,4.10
2019-06-20T12:27:10.101Z,4.67
2019-06-20T12:32:15.173Z,4.83
2019-06-20T12:37:20.243Z,7.00
2019-06-20T12:42:25.077Z,4.73
2019-06-20T12:47:29.900Z,5.27
2019-06-20T12:52:34.976Z,4.17
2019-06-20T12:57:40.436Z,4.63
2019-06-20T13:02:58.285Z,6.30
2019-06-20T13:08:04.012Z,4.30
2019-06-20T13:13:09.058Z,7.13
2019-06-20T13:18:14.116Z,5.80
2019-06-20T13:23:18.947Z,7.53
2019-06-20T13:28:24.119Z,6.80
2019-06-20T13:33:28.930Z,6.17
2019-06-20T13:38:33.759Z,8.47
2019-06-20T13:43:38.589Z,10.57
2019-06-20T13:48:43.991Z,12.33
2019-06-20T13:53:50.667Z,11.90
2019-06-20T13:58:55.508Z,12.23
2019-06-20T14:04:00.342Z,16.80
2019-06-20T14:09:06.919Z,18.20
2019-06-20T14:14:11.763Z,17.57
2019-06-20T14:19:16.625Z,14.87
2019-06-20T14:24:21.690Z,16.97
2019-06-20T14:29:26.522Z,14.10
2019-06-20T14:34:33.844Z,16.97
2019-06-20T14:39:45.461Z,13.43
2019-06-20T14:44:50.303Z,14.00
2019-06-20T14:49:55.171Z,12.43
2019-06-20T14:55:00.050Z,10.03
2019-06-20T15:00:09.926Z,10.30
2019-06-20T15:05:15.915Z,11.53
2019-06-20T15:10:21.952Z,9.37
2019-06-20T15:15:26.780Z,8.90
2019-06-20T15:20:31.591Z,10.77
2019-06-20T15:25:36.404Z,8.47
2019-06-20T15:30:41.265Z,10.57
2019-06-20T15:35:47.202Z,8.20
2019-06-20T15:40:53.610Z,10.50
2019-06-20T15:45:58.484Z,9.27
2019-06-20T15:51:03.298Z,8.80
2019-06-20T15:56:08.258Z,10.13
2019-06-20T16:01:13.292Z,10.20
2019-06-20T16:06:18.346Z,10.80
2019-06-20T16:11:23.180Z,7.00
2019-06-20T16:16:28.255Z,10.50
2019-06-20T16:21:33.073Z,7.83
2019-06-20T16:26:37.889Z,10.10
2019-06-20T16:31:42.733Z,9.27
2019-06-20T16:36:47.532Z,8.77
2019-06-20T16:41:52.580Z,9.07
2019-06-20T16:46:57.418Z,10.83
2019-06-20T16:52:02.237Z,9.73
2019-06-20T16:57:07.044Z,7.87
2019-06-20T17:02:11.882Z,7.73
2019-06-20T17:07:16.697Z,7.83
2019-06-20T17:12:21.513Z,7.67
2019-06-20T17:17:26.311Z,8.67
2019-06-20T17:22:31.140Z,8.77
2019-06-20T17:27:36.183Z,7.27
2019-06-20T17:32:41.059Z,7.77
2019-06-20T17:37:47.182Z,6.67
2019-06-20T17:42:52.242Z,5.97
2019-06-20T17:53:35.505Z,4.83
2019-06-20T17:58:41.955Z,6.63
2019-06-20T18:03:49.388Z,9.10
2019-06-20T18:08:54.447Z,4.53
2019-06-20T18:13:59.498Z,3.37
2019-06-20T18:19:04.566Z,3.57
2019-06-20T18:24:09.400Z,2.70
2019-06-20T18:29:14.186Z,1.80
2019-06-20T18:34:29.501Z,1.70
2019-06-20T18:39:25.751Z,2.13
2019-06-20T18:44:30.564Z,1.70
2019-06-20T18:49:35.388Z,1.90
2019-06-20T18:54:40.203Z,2.90
2019-06-20T18:59:46.735Z,2.97
2019-06-20T19:04:51.596Z,4.93
2019-06-20T19:09:56.662Z,1.70
2019-06-20T19:15:01.850Z,3.63
2019-06-20T19:20:06.881Z,2.83
2019-06-20T19:25:12.011Z,1.70
2019-06-20T19:30:19.475Z,2.90
2019-06-20T19:35:24.300Z,2.50
2019-06-20T19:40:33.362Z,3.87
2019-06-20T19:45:38.443Z,3.30
2019-06-20T19:50:43.496Z,2.87
2019-06-20T19:55:50.648Z,3.70
2019-06-20T20:00:58.304Z,4.37
2019-06-20T20:06:03.373Z,4.80
2019-06-20T20:11:08.199Z,5.13
2019-06-20T20:16:12.997Z,4.33
2019-06-20T20:21:17.811Z,3.63
2019-06-20T20:26:22.808Z,3.33
2019-06-20T20:31:27.874Z,4.40
2019-06-20T20:36:32.924Z,4.57
2019-06-20T20:41:37.738Z,3.50
2019-06-20T20:46:42.792Z,2.93
2019-06-20T20:51:52.505Z,3.60
2019-06-20T20:56:57.685Z,4.80
2019-06-20T21:02:11.618Z,3.80
2019-06-20T21:12:53.189Z,5.27
2019-06-20T21:17:58.004Z,5.70
2019-06-20T21:23:07.547Z,6.43
2019-06-20T21:28:15.760Z,6.53
2019-06-20T21:33:20.793Z,9.10
2019-06-20T21:38:25.842Z,8.43
2019-06-20T21:43:30.907Z,7.87
2019-06-20T21:48:35.972Z,6.97
2019-06-20T21:53:40.775Z,8.67
2019-06-20T21:58:45.628Z,9.03
2019-06-20T22:03:50.674Z,9.87
2019-06-20T22:08:55.785Z,8.90
2019-06-20T22:14:00.628Z,9.00
2019-06-20T22:19:05.435Z,9.60
2019-06-20T22:24:10.250Z,10.73
2019-06-20T22:29:15.323Z,11.17
2019-06-20T22:34:20.153Z,12.77
2019-06-20T22:39:24.976Z,13.07
2019-06-20T22:44:29.798Z,15.57
2019-06-20T22:49:35.011Z,14.47
2019-06-20T22:54:42.892Z,16.13
2019-06-20T22:59:47.966Z,16.20
2019-06-20T23:04:53.045Z,18.37
2019-06-20T23:10:09.768Z,18.43
2019-06-20T23:15:06.037Z,20.03
2019-06-20T23:20:11.295Z,18.03
2019-06-20T23:25:16.131Z,19.97
2019-06-20T23:30:22.489Z,21.07
2019-06-20T23:35:27.317Z,22.90
2019-06-20T23:40:32.462Z,23.37
2019-06-20T23:45:38.825Z,21.93
2019-06-20T23:50:43.656Z,25.33
2019-06-20T23:55:48.781Z,24.33
